sensor_id;sensor_type;location;lat;lon;timestamp;P1;durP1;ratioP1;P2;durP2;ratioP2
65469;SDS011;52067;50.710;14.492;2023-04-28T00:02:12;46.50;;;18.63;;
65469;SDS011;52067;50.710;14.492;2023-04-28T00:04:37;54.28;;;19.33;;
65469;SDS011;52067;50.710;14.492;2023-04-28T00:07:03;51.38;;;18.92;;
65469;SDS011;52067;50.710;14.492;2023-04-28T00:09:28;52.58;;;19.65;;
65469;SDS011;52067;50.710;14.492;2023-04-28T00:11:53;59.40;;;21.08;;
65469;SDS011;52067;50.710;14.492;2023-04-28T00:14:19;58.83;;;24.92;;
65469;SDS011;52067;50.710;14.492;2023-04-28T00:16:44;56.78;;;21.50;;
65469;SDS011;52067;50.710;14.492;2023-04-28T00:19:10;47.13;;;18.95;;
65469;SDS011;52067;50.710;14.492;2023-04-28T00:21:35;52.83;;;18.23;;
65469;SDS011;52067;50.710;14.492;2023-04-28T00:24:00;41.90;;;17.08;;
65469;SDS011;52067;50.710;14.492;2023-04-28T00:26:26;37.97;;;16.50;;
65469;SDS011;52067;50.710;14.492;2023-04-28T00:28:51;35.65;;;14.57;;
65469;SDS011;52067;50.710;14.492;2023-04-28T00:31:17;40.25;;;14.40;;
65469;SDS011;52067;50.710;14.492;2023-04-28T00:33:42;30.65;;;15.00;;
65469;SDS011;52067;50.710;14.492;2023-04-28T00:36:08;31.58;;;13.60;;
65469;SDS011;52067;50.710;14.492;2023-04-28T00:38:34;27.20;;;13.68;;
65469;SDS011;52067;50.710;14.492;2023-04-28T00:40:59;26.67;;;12.77;;
65469;SDS011;52067;50.710;14.492;2023-04-28T00:43:25;34.22;;;14.07;;
65469;SDS011;52067;50.710;14.492;2023-04-28T00:45:51;33.47;;;14.02;;
65469;SDS011;52067;50.710;14.492;2023-04-28T00:48:17;30.52;;;13.63;;
65469;SDS011;52067;50.710;14.492;2023-04-28T00:50:43;23.95;;;12.07;;
65469;SDS011;52067;50.710;14.492;2023-04-28T00:53:09;32.72;;;13.15;;
65469;SDS011;52067;50.710;14.492;2023-04-28T00:55:36;29.42;;;13.32;;
65469;SDS011;52067;50.710;14.492;2023-04-28T00:58:02;29.15;;;12.73;;
65469;SDS011;52067;50.710;14.492;2023-04-28T01:00:27;36.10;;;16.50;;
65469;SDS011;52067;50.710;14.492;2023-04-28T01:02:53;40.80;;;14.70;;
65469;SDS011;52067;50.710;14.492;2023-04-28T01:05:20;41.60;;;14.48;;
65469;SDS011;52067;50.710;14.492;2023-04-28T01:07:49;43.88;;;15.30;;
65469;SDS011;52067;50.710;14.492;2023-04-28T01:10:15;43.05;;;15.73;;
65469;SDS011;52067;50.710;14.492;2023-04-28T01:12:40;34.30;;;14.23;;
65469;SDS011;52067;50.710;14.492;2023-04-28T01:15:06;30.10;;;13.23;;
65469;SDS011;52067;50.710;14.492;2023-04-28T01:17:36;34.35;;;15.25;;
65469;SDS011;52067;50.710;14.492;2023-04-28T01:20:01;26.60;;;12.68;;
65469;SDS011;52067;50.710;14.492;2023-04-28T01:22:28;31.30;;;12.63;;
65469;SDS011;52067;50.710;14.492;2023-04-28T01:24:53;26.25;;;11.98;;
65469;SDS011;52067;50.710;14.492;2023-04-28T01:27:19;31.55;;;12.35;;
65469;SDS011;52067;50.710;14.492;2023-04-28T01:29:44;24.30;;;10.25;;
65469;SDS011;52067;50.710;14.492;2023-04-28T01:32:10;27.10;;;10.85;;
65469;SDS011;52067;50.710;14.492;2023-04-28T01:34:35;26.20;;;10.85;;
65469;SDS011;52067;50.710;14.492;2023-04-28T01:37:01;34.92;;;13.63;;
65469;SDS011;52067;50.710;14.492;2023-04-28T01:39:26;53.80;;;17.92;;
65469;SDS011;52067;50.710;14.492;2023-04-28T01:41:51;27.60;;;12.05;;
65469;SDS011;52067;50.710;14.492;2023-04-28T01:44:17;30.17;;;11.35;;
65469;SDS011;52067;50.710;14.492;2023-04-28T01:46:42;31.40;;;12.63;;
65469;SDS011;52067;50.710;14.492;2023-04-28T01:49:08;25.85;;;11.13;;
65469;SDS011;52067;50.710;14.492;2023-04-28T01:51:33;29.27;;;12.40;;
65469;SDS011;52067;50.710;14.492;2023-04-28T01:53:58;23.38;;;10.95;;
65469;SDS011;52067;50.710;14.492;2023-04-28T01:56:24;22.25;;;9.15;;
65469;SDS011;52067;50.710;14.492;2023-04-28T01:58:49;25.95;;;10.43;;
65469;SDS011;52067;50.710;14.492;2023-04-28T02:01:14;30.30;;;10.77;;
65469;SDS011;52067;50.710;14.492;2023-04-28T02:03:40;19.15;;;9.90;;
65469;SDS011;52067;50.710;14.492;2023-04-28T02:06:05;35.08;;;12.07;;
65469;SDS011;52067;50.710;14.492;2023-04-28T02:08:31;28.88;;;11.07;;
65469;SDS011;52067;50.710;14.492;2023-04-28T02:10:56;27.00;;;10.77;;
65469;SDS011;52067;50.710;14.492;2023-04-28T02:13:22;30.58;;;11.07;;
65469;SDS011;52067;50.710;14.492;2023-04-28T02:15:48;30.08;;;12.32;;
65469;SDS011;52067;50.710;14.492;2023-04-28T02:18:13;18.15;;;9.40;;
65469;SDS011;52067;50.710;14.492;2023-04-28T02:20:38;22.67;;;9.63;;
65469;SDS011;52067;50.710;14.492;2023-04-28T02:23:04;20.77;;;9.32;;
65469;SDS011;52067;50.710;14.492;2023-04-28T02:25:30;18.40;;;9.40;;
65469;SDS011;52067;50.710;14.492;2023-04-28T02:27:55;19.90;;;9.82;;
65469;SDS011;52067;50.710;14.492;2023-04-28T02:30:21;26.15;;;10.45;;
65469;SDS011;52067;50.710;14.492;2023-04-28T02:32:46;26.63;;;10.88;;
65469;SDS011;52067;50.710;14.492;2023-04-28T02:35:12;19.52;;;9.57;;
65469;SDS011;52067;50.710;14.492;2023-04-28T02:37:38;29.38;;;11.60;;
65469;SDS011;52067;50.710;14.492;2023-04-28T02:40:03;19.38;;;10.55;;
65469;SDS011;52067;50.710;14.492;2023-04-28T02:42:29;24.10;;;10.57;;
65469;SDS011;52067;50.710;14.492;2023-04-28T02:44:55;33.58;;;13.30;;
65469;SDS011;52067;50.710;14.492;2023-04-28T02:47:20;32.38;;;13.90;;
65469;SDS011;52067;50.710;14.492;2023-04-28T02:49:45;30.63;;;13.30;;
65469;SDS011;52067;50.710;14.492;2023-04-28T02:52:11;34.00;;;13.18;;
65469;SDS011;52067;50.710;14.492;2023-04-28T02:54:36;31.80;;;13.38;;
65469;SDS011;52067;50.710;14.492;2023-04-28T02:57:01;47.80;;;15.25;;
65469;SDS011;52067;50.710;14.492;2023-04-28T02:59:28;34.28;;;15.05;;
65469;SDS011;52067;50.710;14.492;2023-04-28T03:01:55;27.40;;;13.07;;
65469;SDS011;52067;50.710;14.492;2023-04-28T03:04:20;34.85;;;12.65;;
65469;SDS011;52067;50.710;14.492;2023-04-28T03:06:46;31.98;;;12.30;;
65469;SDS011;52067;50.710;14.492;2023-04-28T03:09:11;30.38;;;13.13;;
65469;SDS011;52067;50.710;14.492;2023-04-28T03:11:37;30.35;;;13.05;;
65469;SDS011;52067;50.710;14.492;2023-04-28T03:14:03;30.17;;;13.00;;
65469;SDS011;52067;50.710;14.492;2023-04-28T03:16:28;28.75;;;12.32;;
65469;SDS011;52067;50.710;14.492;2023-04-28T03:18:54;23.85;;;11.25;;
65469;SDS011;52067;50.710;14.492;2023-04-28T03:21:19;25.00;;;10.10;;
65469;SDS011;52067;50.710;14.492;2023-04-28T03:23:45;23.20;;;12.13;;
65469;SDS011;52067;50.710;14.492;2023-04-28T03:26:10;21.58;;;11.00;;
65469;SDS011;52067;50.710;14.492;2023-04-28T03:28:36;29.30;;;12.00;;
65469;SDS011;52067;50.710;14.492;2023-04-28T03:31:01;34.15;;;11.70;;
65469;SDS011;52067;50.710;14.492;2023-04-28T03:33:27;26.50;;;11.63;;
65469;SDS011;52067;50.710;14.492;2023-04-28T03:35:53;31.40;;;11.40;;
65469;SDS011;52067;50.710;14.492;2023-04-28T03:38:19;23.75;;;11.77;;
65469;SDS011;52067;50.710;14.492;2023-04-28T03:40:44;25.63;;;11.65;;
65469;SDS011;52067;50.710;14.492;2023-04-28T03:43:10;26.23;;;12.02;;
65469;SDS011;52067;50.710;14.492;2023-04-28T03:45:35;26.30;;;11.82;;
65469;SDS011;52067;50.710;14.492;2023-04-28T03:48:01;24.08;;;11.23;;
65469;SDS011;52067;50.710;14.492;2023-04-28T03:50:26;27.00;;;11.55;;
65469;SDS011;52067;50.710;14.492;2023-04-28T03:52:52;26.88;;;11.93;;
65469;SDS011;52067;50.710;14.492;2023-04-28T03:55:17;23.92;;;12.25;;
65469;SDS011;52067;50.710;14.492;2023-04-28T03:57:42;29.25;;;13.35;;
65469;SDS011;52067;50.710;14.492;2023-04-28T04:00:08;32.50;;;12.88;;
65469;SDS011;52067;50.710;14.492;2023-04-28T04:02:34;26.25;;;12.30;;
65469;SDS011;52067;50.710;14.492;2023-04-28T04:04:59;25.20;;;10.48;;
65469;SDS011;52067;50.710;14.492;2023-04-28T04:07:25;27.00;;;12.23;;
65469;SDS011;52067;50.710;14.492;2023-04-28T04:09:50;28.48;;;11.98;;
65469;SDS011;52067;50.710;14.492;2023-04-28T04:12:16;24.40;;;11.73;;
65469;SDS011;52067;50.710;14.492;2023-04-28T04:14:41;31.33;;;13.25;;
65469;SDS011;52067;50.710;14.492;2023-04-28T04:17:07;38.28;;;15.35;;
65469;SDS011;52067;50.710;14.492;2023-04-28T04:19:33;30.95;;;15.55;;
65469;SDS011;52067;50.710;14.492;2023-04-28T04:21:58;41.85;;;17.48;;
65469;SDS011;52067;50.710;14.492;2023-04-28T04:24:23;44.65;;;17.50;;
65469;SDS011;52067;50.710;14.492;2023-04-28T04:26:49;38.15;;;16.73;;
65469;SDS011;52067;50.710;14.492;2023-04-28T04:29:14;35.55;;;15.90;;
65469;SDS011;52067;50.710;14.492;2023-04-28T04:31:40;38.38;;;16.73;;
65469;SDS011;52067;50.710;14.492;2023-04-28T04:34:05;31.90;;;13.65;;
65469;SDS011;52067;50.710;14.492;2023-04-28T04:36:31;28.50;;;13.60;;
65469;SDS011;52067;50.710;14.492;2023-04-28T04:38:57;31.50;;;13.50;;
65469;SDS011;52067;50.710;14.492;2023-04-28T04:41:22;29.65;;;13.70;;
65469;SDS011;52067;50.710;14.492;2023-04-28T04:43:49;38.95;;;14.35;;
65469;SDS011;52067;50.710;14.492;2023-04-28T04:46:15;32.78;;;14.10;;
65469;SDS011;52067;50.710;14.492;2023-04-28T04:48:40;30.05;;;13.25;;
65469;SDS011;52067;50.710;14.492;2023-04-28T04:51:06;28.77;;;13.02;;
65469;SDS011;52067;50.710;14.492;2023-04-28T04:53:31;26.92;;;11.98;;
65469;SDS011;52067;50.710;14.492;2023-04-28T04:55:56;28.45;;;12.65;;
65469;SDS011;52067;50.710;14.492;2023-04-28T04:58:22;25.52;;;12.00;;
65469;SDS011;52067;50.710;14.492;2023-04-28T05:00:47;25.83;;;12.48;;
65469;SDS011;52067;50.710;14.492;2023-04-28T05:03:13;24.45;;;12.43;;
65469;SDS011;52067;50.710;14.492;2023-04-28T05:05:38;25.52;;;12.55;;
65469;SDS011;52067;50.710;14.492;2023-04-28T05:08:04;26.90;;;13.68;;
65469;SDS011;52067;50.710;14.492;2023-04-28T05:10:30;28.35;;;14.95;;
65469;SDS011;52067;50.710;14.492;2023-04-28T05:12:55;35.88;;;16.13;;
65469;SDS011;52067;50.710;14.492;2023-04-28T05:15:21;48.55;;;19.98;;
65469;SDS011;52067;50.710;14.492;2023-04-28T05:17:46;85.78;;;29.83;;
65469;SDS011;52067;50.710;14.492;2023-04-28T05:20:11;78.88;;;28.98;;
65469;SDS011;52067;50.710;14.492;2023-04-28T05:22:37;109.68;;;34.45;;
65469;SDS011;52067;50.710;14.492;2023-04-28T05:25:02;92.80;;;31.05;;
65469;SDS011;52067;50.710;14.492;2023-04-28T05:27:28;75.00;;;26.10;;
65469;SDS011;52067;50.710;14.492;2023-04-28T05:29:53;45.75;;;17.80;;
65469;SDS011;52067;50.710;14.492;2023-04-28T05:32:19;36.72;;;16.27;;
65469;SDS011;52067;50.710;14.492;2023-04-28T05:34:45;38.90;;;14.77;;
65469;SDS011;52067;50.710;14.492;2023-04-28T05:37:10;30.20;;;14.07;;
65469;SDS011;52067;50.710;14.492;2023-04-28T05:39:36;30.92;;;12.75;;
65469;SDS011;52067;50.710;14.492;2023-04-28T05:42:01;23.17;;;11.35;;
65469;SDS011;52067;50.710;14.492;2023-04-28T05:44:28;22.10;;;11.13;;
65469;SDS011;52067;50.710;14.492;2023-04-28T05:46:55;24.08;;;11.18;;
65469;SDS011;52067;50.710;14.492;2023-04-28T05:49:20;17.33;;;9.10;;
65469;SDS011;52067;50.710;14.492;2023-04-28T05:51:45;18.00;;;9.45;;
65469;SDS011;52067;50.710;14.492;2023-04-28T05:54:11;22.98;;;10.57;;
65469;SDS011;52067;50.710;14.492;2023-04-28T05:56:36;22.65;;;12.23;;
65469;SDS011;52067;50.710;14.492;2023-04-28T05:59:02;23.67;;;11.05;;
65469;SDS011;52067;50.710;14.492;2023-04-28T06:01:29;21.58;;;12.07;;
65469;SDS011;52067;50.710;14.492;2023-04-28T06:03:55;18.75;;;11.30;;
65469;SDS011;52067;50.710;14.492;2023-04-28T06:06:23;17.02;;;9.60;;
65469;SDS011;52067;50.710;14.492;2023-04-28T06:08:49;23.67;;;9.35;;
65469;SDS011;52067;50.710;14.492;2023-04-28T06:11:14;19.73;;;9.07;;
65469;SDS011;52067;50.710;14.492;2023-04-28T06:13:40;19.33;;;8.48;;
65469;SDS011;52067;50.710;14.492;2023-04-28T06:16:06;19.73;;;12.30;;
65469;SDS011;52067;50.710;14.492;2023-04-28T06:18:32;13.57;;;8.13;;
65469;SDS011;52067;50.710;14.492;2023-04-28T06:20:57;15.35;;;7.95;;
65469;SDS011;52067;50.710;14.492;2023-04-28T06:23:23;18.20;;;8.27;;
65469;SDS011;52067;50.710;14.492;2023-04-28T06:25:48;16.42;;;9.32;;
65469;SDS011;52067;50.710;14.492;2023-04-28T06:28:14;21.58;;;9.60;;
65469;SDS011;52067;50.710;14.492;2023-04-28T06:30:39;15.65;;;8.40;;
65469;SDS011;52067;50.710;14.492;2023-04-28T06:33:05;18.55;;;9.18;;
65469;SDS011;52067;50.710;14.492;2023-04-28T06:35:30;16.92;;;7.97;;
65469;SDS011;52067;50.710;14.492;2023-04-28T06:37:59;17.73;;;8.68;;
65469;SDS011;52067;50.710;14.492;2023-04-28T06:40:25;18.00;;;9.95;;
65469;SDS011;52067;50.710;14.492;2023-04-28T06:42:51;15.65;;;9.00;;
65469;SDS011;52067;50.710;14.492;2023-04-28T06:45:16;14.88;;;8.23;;
65469;SDS011;52067;50.710;14.492;2023-04-28T06:47:42;18.80;;;8.48;;
65469;SDS011;52067;50.710;14.492;2023-04-28T06:50:07;17.77;;;8.88;;
65469;SDS011;52067;50.710;14.492;2023-04-28T06:52:33;15.35;;;8.60;;
65469;SDS011;52067;50.710;14.492;2023-04-28T06:54:59;21.00;;;8.38;;
65469;SDS011;52067;50.710;14.492;2023-04-28T06:57:24;16.75;;;8.48;;
65469;SDS011;52067;50.710;14.492;2023-04-28T06:59:50;16.58;;;8.40;;
65469;SDS011;52067;50.710;14.492;2023-04-28T07:02:15;12.88;;;7.00;;
65469;SDS011;52067;50.710;14.492;2023-04-28T07:04:41;17.20;;;7.13;;
65469;SDS011;52067;50.710;14.492;2023-04-28T07:07:06;13.05;;;6.72;;
65469;SDS011;52067;50.710;14.492;2023-04-28T07:09:35;13.90;;;5.97;;
65469;SDS011;52067;50.710;14.492;2023-04-28T07:12:00;12.70;;;6.30;;
65469;SDS011;52067;50.710;14.492;2023-04-28T07:14:26;11.75;;;6.47;;
65469;SDS011;52067;50.710;14.492;2023-04-28T07:16:51;10.70;;;6.32;;
65469;SDS011;52067;50.710;14.492;2023-04-28T07:19:17;11.52;;;6.78;;
65469;SDS011;52067;50.710;14.492;2023-04-28T07:21:42;13.98;;;6.80;;
65469;SDS011;52067;50.710;14.492;2023-04-28T07:24:08;12.35;;;6.60;;
65469;SDS011;52067;50.710;14.492;2023-04-28T07:26:33;12.43;;;6.30;;
65469;SDS011;52067;50.710;14.492;2023-04-28T07:28:59;16.88;;;5.78;;
65469;SDS011;52067;50.710;14.492;2023-04-28T07:31:24;11.43;;;7.20;;
65469;SDS011;52067;50.710;14.492;2023-04-28T07:33:50;10.75;;;6.38;;
65469;SDS011;52067;50.710;14.492;2023-04-28T07:36:15;10.07;;;5.40;;
65469;SDS011;52067;50.710;14.492;2023-04-28T07:38:41;15.73;;;6.05;;
65469;SDS011;52067;50.710;14.492;2023-04-28T07:41:06;18.60;;;6.00;;
65469;SDS011;52067;50.710;14.492;2023-04-28T07:43:32;19.70;;;6.30;;
65469;SDS011;52067;50.710;14.492;2023-04-28T07:45:57;20.58;;;6.03;;
65469;SDS011;52067;50.710;14.492;2023-04-28T07:48:23;11.55;;;6.00;;
65469;SDS011;52067;50.710;14.492;2023-04-28T07:50:48;17.88;;;5.95;;
65469;SDS011;52067;50.710;14.492;2023-04-28T07:53:14;10.70;;;5.35;;
65469;SDS011;52067;50.710;14.492;2023-04-28T07:55:39;13.55;;;5.60;;
65469;SDS011;52067;50.710;14.492;2023-04-28T07:58:07;11.05;;;5.43;;
65469;SDS011;52067;50.710;14.492;2023-04-28T08:00:33;13.18;;;5.90;;
65469;SDS011;52067;50.710;14.492;2023-04-28T08:02:58;12.82;;;5.70;;
65469;SDS011;52067;50.710;14.492;2023-04-28T08:05:23;10.40;;;5.50;;
65469;SDS011;52067;50.710;14.492;2023-04-28T08:07:49;11.30;;;5.78;;
65469;SDS011;52067;50.710;14.492;2023-04-28T08:10:14;12.50;;;5.47;;
65469;SDS011;52067;50.710;14.492;2023-04-28T08:12:39;11.10;;;5.22;;
65469;SDS011;52067;50.710;14.492;2023-04-28T08:15:05;10.05;;;5.43;;
65469;SDS011;52067;50.710;14.492;2023-04-28T08:17:32;10.32;;;5.50;;
65469;SDS011;52067;50.710;14.492;2023-04-28T08:19:58;9.38;;;5.40;;
65469;SDS011;52067;50.710;14.492;2023-04-28T08:22:23;12.65;;;5.60;;
65469;SDS011;52067;50.710;14.492;2023-04-28T08:24:49;9.77;;;5.55;;
65469;SDS011;52067;50.710;14.492;2023-04-28T08:27:14;14.25;;;5.60;;
65469;SDS011;52067;50.710;14.492;2023-04-28T08:29:39;11.98;;;4.85;;
65469;SDS011;52067;50.710;14.492;2023-04-28T08:32:05;10.32;;;5.65;;
65469;SDS011;52067;50.710;14.492;2023-04-28T08:34:31;9.55;;;4.93;;
65469;SDS011;52067;50.710;14.492;2023-04-28T08:36:57;8.00;;;4.53;;
65469;SDS011;52067;50.710;14.492;2023-04-28T08:39:22;18.17;;;5.10;;
65469;SDS011;52067;50.710;14.492;2023-04-28T08:41:50;12.75;;;5.82;;
65469;SDS011;52067;50.710;14.492;2023-04-28T08:44:15;9.07;;;5.10;;
65469;SDS011;52067;50.710;14.492;2023-04-28T08:46:41;10.32;;;6.00;;
65469;SDS011;52067;50.710;14.492;2023-04-28T08:49:11;19.05;;;5.60;;
65469;SDS011;52067;50.710;14.492;2023-04-28T08:51:46;9.33;;;4.90;;
65469;SDS011;52067;50.710;14.492;2023-04-28T08:54:15;9.75;;;5.20;;
65469;SDS011;52067;50.710;14.492;2023-04-28T08:56:42;10.45;;;5.57;;
65469;SDS011;52067;50.710;14.492;2023-04-28T08:59:10;16.75;;;5.13;;
65469;SDS011;52067;50.710;14.492;2023-04-28T09:01:39;8.18;;;4.82;;
65469;SDS011;52067;50.710;14.492;2023-04-28T09:04:05;15.35;;;5.50;;
65469;SDS011;52067;50.710;14.492;2023-04-28T09:06:31;10.40;;;5.55;;
65469;SDS011;52067;50.710;14.492;2023-04-28T09:11:53;12.23;;;5.78;;
65469;SDS011;52067;50.710;14.492;2023-04-28T09:14:21;8.48;;;5.18;;
65469;SDS011;52067;50.710;14.492;2023-04-28T09:16:47;10.85;;;5.00;;
65469;SDS011;52067;50.710;14.492;2023-04-28T09:19:14;16.65;;;5.53;;
65469;SDS011;52067;50.710;14.492;2023-04-28T09:24:27;10.43;;;4.93;;
65469;SDS011;52067;50.710;14.492;2023-04-28T09:26:54;9.57;;;5.10;;
65469;SDS011;52067;50.710;14.492;2023-04-28T09:29:20;11.02;;;5.15;;
65469;SDS011;52067;50.710;14.492;2023-04-28T09:31:45;9.93;;;5.38;;
65469;SDS011;52067;50.710;14.492;2023-04-28T09:34:10;15.30;;;5.60;;
65469;SDS011;52067;50.710;14.492;2023-04-28T09:36:36;8.98;;;5.20;;
65469;SDS011;52067;50.710;14.492;2023-04-28T09:39:02;9.05;;;5.35;;
65469;SDS011;52067;50.710;14.492;2023-04-28T09:44:09;9.32;;;4.78;;
65469;SDS011;52067;50.710;14.492;2023-04-28T09:46:39;10.02;;;5.10;;
65469;SDS011;52067;50.710;14.492;2023-04-28T09:49:04;10.88;;;5.25;;
65469;SDS011;52067;50.710;14.492;2023-04-28T09:51:30;9.65;;;5.18;;
65469;SDS011;52067;50.710;14.492;2023-04-28T09:53:55;9.15;;;4.85;;
65469;SDS011;52067;50.710;14.492;2023-04-28T09:56:26;10.07;;;4.95;;
65469;SDS011;52067;50.710;14.492;2023-04-28T09:58:52;8.60;;;4.45;;
65469;SDS011;52067;50.710;14.492;2023-04-28T10:01:19;7.22;;;4.43;;
65469;SDS011;52067;50.710;14.492;2023-04-28T10:03:45;10.25;;;4.70;;
65469;SDS011;52067;50.710;14.492;2023-04-28T10:06:12;9.60;;;4.47;;
65469;SDS011;52067;50.710;14.492;2023-04-28T10:08:38;11.20;;;4.90;;
65469;SDS011;52067;50.710;14.492;2023-04-28T10:11:05;12.00;;;5.07;;
65469;SDS011;52067;50.710;14.492;2023-04-28T10:13:31;9.68;;;4.32;;
65469;SDS011;52067;50.710;14.492;2023-04-28T10:15:58;9.63;;;5.00;;
65469;SDS011;52067;50.710;14.492;2023-04-28T10:18:24;9.77;;;5.18;;
65469;SDS011;52067;50.710;14.492;2023-04-28T10:20:57;8.18;;;4.82;;
65469;SDS011;52067;50.710;14.492;2023-04-28T10:26:17;8.95;;;4.60;;
65469;SDS011;52067;50.710;14.492;2023-04-28T10:28:47;8.35;;;5.03;;
65469;SDS011;52067;50.710;14.492;2023-04-28T10:31:16;8.52;;;5.00;;
65469;SDS011;52067;50.710;14.492;2023-04-28T10:33:47;7.93;;;4.57;;
65469;SDS011;52067;50.710;14.492;2023-04-28T10:39:11;8.05;;;5.10;;
65469;SDS011;52067;50.710;14.492;2023-04-28T10:41:36;9.40;;;4.90;;
65469;SDS011;52067;50.710;14.492;2023-04-28T10:44:47;8.05;;;4.50;;
65469;SDS011;52067;50.710;14.492;2023-04-28T10:47:06;12.00;;;4.90;;
65469;SDS011;52067;50.710;14.492;2023-04-28T11:00:44;10.68;;;5.50;;
65469;SDS011;52067;50.710;14.492;2023-04-28T11:08:50;13.07;;;5.22;;
65469;SDS011;52067;50.710;14.492;2023-04-28T11:11:20;9.88;;;4.70;;
65469;SDS011;52067;50.710;14.492;2023-04-28T11:13:48;8.10;;;4.63;;
65469;SDS011;52067;50.710;14.492;2023-04-28T11:16:15;11.20;;;5.63;;
65469;SDS011;52067;50.710;14.492;2023-04-28T11:18:55;11.68;;;6.15;;
65469;SDS011;52067;50.710;14.492;2023-04-28T11:21:23;8.98;;;5.28;;
65469;SDS011;52067;50.710;14.492;2023-04-28T11:23:50;8.98;;;4.72;;
65469;SDS011;52067;50.710;14.492;2023-04-28T11:26:16;10.95;;;4.68;;
65469;SDS011;52067;50.710;14.492;2023-04-28T11:28:50;11.80;;;5.22;;
65469;SDS011;52067;50.710;14.492;2023-04-28T11:31:17;14.27;;;5.25;;
65469;SDS011;52067;50.710;14.492;2023-04-28T11:34:03;8.88;;;5.20;;
65469;SDS011;52067;50.710;14.492;2023-04-28T11:36:41;12.65;;;6.00;;
65469;SDS011;52067;50.710;14.492;2023-04-28T11:39:07;9.38;;;5.57;;
65469;SDS011;52067;50.710;14.492;2023-04-28T11:41:38;9.30;;;5.07;;
65469;SDS011;52067;50.710;14.492;2023-04-28T11:44:12;13.48;;;5.38;;
65469;SDS011;52067;50.710;14.492;2023-04-28T11:49:26;9.07;;;5.47;;
65469;SDS011;52067;50.710;14.492;2023-04-28T11:51:53;10.13;;;5.18;;
65469;SDS011;52067;50.710;14.492;2023-04-28T11:54:23;7.97;;;5.32;;
65469;SDS011;52067;50.710;14.492;2023-04-28T11:56:50;13.45;;;5.93;;
65469;SDS011;52067;50.710;14.492;2023-04-28T11:59:16;10.02;;;4.95;;
65469;SDS011;52067;50.710;14.492;2023-04-28T12:04:27;15.52;;;5.75;;
65469;SDS011;52067;50.710;14.492;2023-04-28T12:07:04;10.80;;;5.45;;
65469;SDS011;52067;50.710;14.492;2023-04-28T12:09:34;9.38;;;5.78;;
65469;SDS011;52067;50.710;14.492;2023-04-28T12:12:04;10.80;;;5.20;;
65469;SDS011;52067;50.710;14.492;2023-04-28T12:14:31;8.90;;;5.40;;
65469;SDS011;52067;50.710;14.492;2023-04-28T12:20:32;9.50;;;6.05;;
65469;SDS011;52067;50.710;14.492;2023-04-28T12:22:59;12.88;;;6.40;;
65469;SDS011;52067;50.710;14.492;2023-04-28T12:25:24;15.70;;;6.32;;
65469;SDS011;52067;50.710;14.492;2023-04-28T12:28:00;11.70;;;6.97;;
65469;SDS011;52067;50.710;14.492;2023-04-28T12:30:26;14.45;;;6.50;;
65469;SDS011;52067;50.710;14.492;2023-04-28T12:32:52;14.27;;;6.72;;
65469;SDS011;52067;50.710;14.492;2023-04-28T12:35:26;12.52;;;6.45;;
65469;SDS011;52067;50.710;14.492;2023-04-28T12:37:53;10.80;;;6.68;;
65469;SDS011;52067;50.710;14.492;2023-04-28T12:40:20;12.38;;;6.88;;
65469;SDS011;52067;50.710;14.492;2023-04-28T12:42:45;9.73;;;6.35;;
65469;SDS011;52067;50.710;14.492;2023-04-28T12:45:11;11.43;;;6.43;;
65469;SDS011;52067;50.710;14.492;2023-04-28T12:47:36;17.90;;;7.03;;
65469;SDS011;52067;50.710;14.492;2023-04-28T12:50:05;12.07;;;6.28;;
65469;SDS011;52067;50.710;14.492;2023-04-28T12:52:32;11.10;;;6.90;;
65469;SDS011;52067;50.710;14.492;2023-04-28T12:54:59;10.35;;;6.78;;
65469;SDS011;52067;50.710;14.492;2023-04-28T12:57:24;12.93;;;6.38;;
65469;SDS011;52067;50.710;14.492;2023-04-28T12:59:50;11.57;;;5.93;;
65469;SDS011;52067;50.710;14.492;2023-04-28T13:02:16;13.73;;;6.47;;
65469;SDS011;52067;50.710;14.492;2023-04-28T13:04:42;12.48;;;6.65;;
65469;SDS011;52067;50.710;14.492;2023-04-28T13:07:10;18.15;;;6.88;;
65469;SDS011;52067;50.710;14.492;2023-04-28T13:09:36;13.75;;;5.85;;
65469;SDS011;52067;50.710;14.492;2023-04-28T13:12:01;12.20;;;6.55;;
65469;SDS011;52067;50.710;14.492;2023-04-28T13:14:28;12.77;;;6.55;;
65469;SDS011;52067;50.710;14.492;2023-04-28T13:16:53;14.35;;;6.68;;
65469;SDS011;52067;50.710;14.492;2023-04-28T13:19:19;9.90;;;6.53;;
65469;SDS011;52067;50.710;14.492;2023-04-28T13:21:45;11.90;;;6.13;;
65469;SDS011;52067;50.710;14.492;2023-04-28T13:24:11;12.80;;;6.53;;
65469;SDS011;52067;50.710;14.492;2023-04-28T13:26:37;11.27;;;6.38;;
65469;SDS011;52067;50.710;14.492;2023-04-28T13:29:03;10.30;;;6.35;;
65469;SDS011;52067;50.710;14.492;2023-04-28T13:31:29;9.90;;;5.75;;
65469;SDS011;52067;50.710;14.492;2023-04-28T13:33:55;14.18;;;6.53;;
65469;SDS011;52067;50.710;14.492;2023-04-28T13:36:21;12.63;;;6.55;;
65469;SDS011;52067;50.710;14.492;2023-04-28T13:38:47;13.40;;;7.18;;
65469;SDS011;52067;50.710;14.492;2023-04-28T13:41:14;10.18;;;6.88;;
65469;SDS011;52067;50.710;14.492;2023-04-28T13:43:40;13.68;;;6.75;;
65469;SDS011;52067;50.710;14.492;2023-04-28T13:46:05;13.63;;;7.10;;
65469;SDS011;52067;50.710;14.492;2023-04-28T13:48:32;12.98;;;7.40;;
65469;SDS011;52067;50.710;14.492;2023-04-28T13:51:03;14.10;;;7.63;;
65469;SDS011;52067;50.710;14.492;2023-04-28T13:53:29;15.30;;;8.18;;
65469;SDS011;52067;50.710;14.492;2023-04-28T13:55:55;14.73;;;7.50;;
65469;SDS011;52067;50.710;14.492;2023-04-28T13:58:25;12.02;;;7.75;;
65469;SDS011;52067;50.710;14.492;2023-04-28T14:00:51;14.10;;;7.28;;
65469;SDS011;52067;50.710;14.492;2023-04-28T14:03:17;14.98;;;8.80;;
65469;SDS011;52067;50.710;14.492;2023-04-28T14:05:47;17.60;;;8.13;;
65469;SDS011;52067;50.710;14.492;2023-04-28T14:08:13;13.88;;;7.43;;
65469;SDS011;52067;50.710;14.492;2023-04-28T14:10:39;13.65;;;7.53;;
65469;SDS011;52067;50.710;14.492;2023-04-28T14:13:05;17.88;;;7.85;;
65469;SDS011;52067;50.710;14.492;2023-04-28T14:15:31;12.75;;;6.90;;
65469;SDS011;52067;50.710;14.492;2023-04-28T14:17:57;15.70;;;8.52;;
65469;SDS011;52067;50.710;14.492;2023-04-28T14:20:22;13.10;;;7.55;;
65469;SDS011;52067;50.710;14.492;2023-04-28T14:22:47;14.55;;;7.50;;
65469;SDS011;52067;50.710;14.492;2023-04-28T14:25:13;15.15;;;7.55;;
65469;SDS011;52067;50.710;14.492;2023-04-28T14:27:38;13.57;;;7.72;;
65469;SDS011;52067;50.710;14.492;2023-04-28T14:30:04;19.98;;;9.63;;
65469;SDS011;52067;50.710;14.492;2023-04-28T14:32:30;21.38;;;9.60;;
65469;SDS011;52067;50.710;14.492;2023-04-28T14:34:55;32.72;;;15.93;;
65469;SDS011;52067;50.710;14.492;2023-04-28T14:37:21;22.20;;;12.75;;
65469;SDS011;52067;50.710;14.492;2023-04-28T14:39:47;19.58;;;9.63;;
65469;SDS011;52067;50.710;14.492;2023-04-28T14:42:12;17.35;;;9.73;;
65469;SDS011;52067;50.710;14.492;2023-04-28T14:44:38;27.33;;;11.00;;
65469;SDS011;52067;50.710;14.492;2023-04-28T14:47:03;23.58;;;11.35;;
65469;SDS011;52067;50.710;14.492;2023-04-28T14:49:29;68.05;;;21.17;;
65469;SDS011;52067;50.710;14.492;2023-04-28T14:51:55;17.50;;;10.38;;
65469;SDS011;52067;50.710;14.492;2023-04-28T14:54:21;27.00;;;12.35;;